sensor_id;sensor_type;location;lat;lon;timestamp;P1;durP1;ratioP1;P2;durP2;ratioP2
58354;SDS011;44160;49.080;19.302;2023-08-07T00:00:57;1.33;;;1.20;;
58354;SDS011;44160;49.080;19.302;2023-08-07T00:03:23;1.45;;;1.27;;
58354;SDS011;44160;49.080;19.302;2023-08-07T00:05:49;2.20;;;1.40;;
58354;SDS011;44160;49.080;19.302;2023-08-07T00:08:17;1.50;;;1.40;;
58354;SDS011;44160;49.080;19.302;2023-08-07T00:10:43;5.45;;;1.55;;
58354;SDS011;44160;49.080;19.302;2023-08-07T00:13:09;3.80;;;1.25;;
58354;SDS011;44160;49.080;19.302;2023-08-07T00:15:37;3.20;;;1.25;;
58354;SDS011;44160;49.080;19.302;2023-08-07T00:18:03;1.55;;;1.27;;
58354;SDS011;44160;49.080;19.302;2023-08-07T00:20:29;2.67;;;1.58;;
58354;SDS011;44160;49.080;19.302;2023-08-07T00:22:55;1.70;;;1.40;;
58354;SDS011;44160;49.080;19.302;2023-08-07T00:25:23;2.40;;;1.75;;
58354;SDS011;44160;49.080;19.302;2023-08-07T00:27:49;2.13;;;1.73;;
58354;SDS011;44160;49.080;19.302;2023-08-07T00:30:15;2.72;;;1.80;;
58354;SDS011;44160;49.080;19.302;2023-08-07T00:32:41;3.80;;;2.00;;
58354;SDS011;44160;49.080;19.302;2023-08-07T00:35:07;7.18;;;1.60;;
58354;SDS011;44160;49.080;19.302;2023-08-07T00:37:33;3.67;;;1.33;;
58354;SDS011;44160;49.080;19.302;2023-08-07T00:39:59;4.35;;;1.50;;
58354;SDS011;44160;49.080;19.302;2023-08-07T00:42:25;2.22;;;1.70;;
58354;SDS011;44160;49.080;19.302;2023-08-07T00:44:52;3.67;;;1.30;;
58354;SDS011;44160;49.080;19.302;2023-08-07T00:47:18;3.67;;;1.65;;
58354;SDS011;44160;49.080;19.302;2023-08-07T00:49:45;1.63;;;1.38;;
58354;SDS011;44160;49.080;19.302;2023-08-07T00:52:11;2.97;;;1.33;;
58354;SDS011;44160;49.080;19.302;2023-08-07T00:54:37;4.72;;;1.65;;
58354;SDS011;44160;49.080;19.302;2023-08-07T00:57:12;1.88;;;1.60;;
58354;SDS011;44160;49.080;19.302;2023-08-07T00:59:40;4.30;;;1.60;;
58354;SDS011;44160;49.080;19.302;2023-08-07T01:02:06;4.63;;;1.60;;
58354;SDS011;44160;49.080;19.302;2023-08-07T01:04:32;1.77;;;1.45;;
58354;SDS011;44160;49.080;19.302;2023-08-07T01:06:58;1.55;;;1.45;;
58354;SDS011;44160;49.080;19.302;2023-08-07T01:09:24;2.15;;;1.40;;
58354;SDS011;44160;49.080;19.302;2023-08-07T01:12:02;4.78;;;1.60;;
58354;SDS011;44160;49.080;19.302;2023-08-07T01:14:40;2.53;;;1.50;;
58354;SDS011;44160;49.080;19.302;2023-08-07T01:17:14;2.95;;;1.80;;
58354;SDS011;44160;49.080;19.302;2023-08-07T01:19:40;1.85;;;1.67;;
58354;SDS011;44160;49.080;19.302;2023-08-07T01:22:10;4.03;;;1.60;;
58354;SDS011;44160;49.080;19.302;2023-08-07T01:24:38;2.78;;;1.75;;
58354;SDS011;44160;49.080;19.302;2023-08-07T01:29:57;2.33;;;1.65;;
58354;SDS011;44160;49.080;19.302;2023-08-07T01:32:28;2.00;;;1.60;;
58354;SDS011;44160;49.080;19.302;2023-08-07T01:34:54;3.17;;;1.80;;
58354;SDS011;44160;49.080;19.302;2023-08-07T01:37:22;3.92;;;1.50;;
58354;SDS011;44160;49.080;19.302;2023-08-07T01:39:48;1.70;;;1.55;;
58354;SDS011;44160;49.080;19.302;2023-08-07T01:42:15;3.15;;;1.65;;
58354;SDS011;44160;49.080;19.302;2023-08-07T01:44:42;1.55;;;1.45;;
58354;SDS011;44160;49.080;19.302;2023-08-07T01:47:08;3.55;;;1.50;;
58354;SDS011;44160;49.080;19.302;2023-08-07T01:49:34;1.70;;;1.50;;
58354;SDS011;44160;49.080;19.302;2023-08-07T01:52:01;2.72;;;1.48;;
58354;SDS011;44160;49.080;19.302;2023-08-07T01:54:27;3.28;;;2.08;;
58354;SDS011;44160;49.080;19.302;2023-08-07T01:56:53;2.08;;;1.77;;
58354;SDS011;44160;49.080;19.302;2023-08-07T01:59:19;2.30;;;1.60;;
58354;SDS011;44160;49.080;19.302;2023-08-07T02:01:45;2.25;;;1.95;;
58354;SDS011;44160;49.080;19.302;2023-08-07T02:04:11;2.20;;;1.55;;
58354;SDS011;44160;49.080;19.302;2023-08-07T02:06:37;2.88;;;1.52;;
58354;SDS011;44160;49.080;19.302;2023-08-07T02:09:03;2.20;;;1.80;;
58354;SDS011;44160;49.080;19.302;2023-08-07T02:11:29;2.15;;;1.85;;
58354;SDS011;44160;49.080;19.302;2023-08-07T02:13:56;2.33;;;1.48;;
58354;SDS011;44160;49.080;19.302;2023-08-07T02:16:22;2.55;;;2.00;;
58354;SDS011;44160;49.080;19.302;2023-08-07T02:18:48;2.72;;;1.73;;
58354;SDS011;44160;49.080;19.302;2023-08-07T02:21:14;1.88;;;1.65;;
58354;SDS011;44160;49.080;19.302;2023-08-07T02:23:40;1.90;;;1.70;;
58354;SDS011;44160;49.080;19.302;2023-08-07T02:26:06;3.33;;;2.10;;
58354;SDS011;44160;49.080;19.302;2023-08-07T02:28:32;2.50;;;1.90;;
58354;SDS011;44160;49.080;19.302;2023-08-07T02:30:59;5.60;;;1.70;;
58354;SDS011;44160;49.080;19.302;2023-08-07T02:33:25;3.25;;;1.42;;
58354;SDS011;44160;49.080;19.302;2023-08-07T02:35:52;2.40;;;1.60;;
58354;SDS011;44160;49.080;19.302;2023-08-07T02:38:17;2.10;;;1.67;;
58354;SDS011;44160;49.080;19.302;2023-08-07T02:40:44;1.95;;;1.40;;
58354;SDS011;44160;49.080;19.302;2023-08-07T02:43:10;2.30;;;1.30;;
58354;SDS011;44160;49.080;19.302;2023-08-07T02:45:36;1.83;;;1.45;;
58354;SDS011;44160;49.080;19.302;2023-08-07T02:48:02;1.45;;;1.30;;
58354;SDS011;44160;49.080;19.302;2023-08-07T02:50:28;1.88;;;1.27;;
58354;SDS011;44160;49.080;19.302;2023-08-07T02:52:57;1.67;;;1.30;;
58354;SDS011;44160;49.080;19.302;2023-08-07T02:55:23;1.60;;;1.50;;
58354;SDS011;44160;49.080;19.302;2023-08-07T02:57:49;2.08;;;1.60;;
58354;SDS011;44160;49.080;19.302;2023-08-07T03:00:15;1.80;;;1.40;;
58354;SDS011;44160;49.080;19.302;2023-08-07T03:02:41;1.77;;;1.30;;
58354;SDS011;44160;49.080;19.302;2023-08-07T03:05:07;2.78;;;1.45;;
58354;SDS011;44160;49.080;19.302;2023-08-07T03:07:34;1.70;;;1.50;;
58354;SDS011;44160;49.080;19.302;2023-08-07T03:10:00;1.33;;;1.23;;
58354;SDS011;44160;49.080;19.302;2023-08-07T03:12:26;2.08;;;1.83;;
58354;SDS011;44160;49.080;19.302;2023-08-07T03:14:52;1.50;;;1.40;;
58354;SDS011;44160;49.080;19.302;2023-08-07T03:17:18;2.05;;;1.23;;
58354;SDS011;44160;49.080;19.302;2023-08-07T03:19:46;2.28;;;1.73;;
58354;SDS011;44160;49.080;19.302;2023-08-07T03:22:12;2.28;;;1.30;;
58354;SDS011;44160;49.080;19.302;2023-08-07T03:24:38;1.85;;;1.58;;
58354;SDS011;44160;49.080;19.302;2023-08-07T03:27:04;1.85;;;1.50;;
58354;SDS011;44160;49.080;19.302;2023-08-07T03:29:30;5.03;;;1.73;;
58354;SDS011;44160;49.080;19.302;2023-08-07T03:31:56;4.40;;;2.35;;
58354;SDS011;44160;49.080;19.302;2023-08-07T03:34:22;3.67;;;2.78;;
58354;SDS011;44160;49.080;19.302;2023-08-07T03:36:48;4.63;;;3.30;;
58354;SDS011;44160;49.080;19.302;2023-08-07T03:39:14;6.95;;;2.42;;
58354;SDS011;44160;49.080;19.302;2023-08-07T03:41:40;2.38;;;1.58;;
58354;SDS011;44160;49.080;19.302;2023-08-07T03:44:06;1.45;;;1.23;;
58354;SDS011;44160;49.080;19.302;2023-08-07T03:46:32;2.85;;;2.10;;
58354;SDS011;44160;49.080;19.302;2023-08-07T03:48:58;1.30;;;1.15;;
58354;SDS011;44160;49.080;19.302;2023-08-07T03:51:24;1.27;;;0.90;;
58354;SDS011;44160;49.080;19.302;2023-08-07T03:53:51;2.00;;;1.52;;
58354;SDS011;44160;49.080;19.302;2023-08-07T03:56:17;2.60;;;2.08;;
58354;SDS011;44160;49.080;19.302;2023-08-07T03:58:43;2.22;;;1.85;;
58354;SDS011;44160;49.080;19.302;2023-08-07T04:01:10;2.22;;;1.27;;
58354;SDS011;44160;49.080;19.302;2023-08-07T04:03:36;1.95;;;0.98;;
58354;SDS011;44160;49.080;19.302;2023-08-07T04:06:02;1.40;;;0.95;;
58354;SDS011;44160;49.080;19.302;2023-08-07T04:08:30;1.05;;;0.95;;
58354;SDS011;44160;49.080;19.302;2023-08-07T04:11:03;0.77;;;0.70;;
58354;SDS011;44160;49.080;19.302;2023-08-07T04:13:30;1.67;;;0.50;;
58354;SDS011;44160;49.080;19.302;2023-08-07T04:15:56;0.60;;;0.60;;
58354;SDS011;44160;49.080;19.302;2023-08-07T04:18:22;2.38;;;0.90;;
58354;SDS011;44160;49.080;19.302;2023-08-07T04:20:49;0.60;;;0.60;;
58354;SDS011;44160;49.080;19.302;2023-08-07T04:23:17;0.70;;;0.70;;
58354;SDS011;44160;49.080;19.302;2023-08-07T04:25:43;0.57;;;0.57;;
58354;SDS011;44160;49.080;19.302;2023-08-07T04:28:09;0.85;;;0.80;;
58354;SDS011;44160;49.080;19.302;2023-08-07T04:30:35;3.63;;;0.70;;
58354;SDS011;44160;49.080;19.302;2023-08-07T04:33:01;3.80;;;0.73;;
58354;SDS011;44160;49.080;19.302;2023-08-07T04:35:27;1.42;;;0.80;;
58354;SDS011;44160;49.080;19.302;2023-08-07T04:37:53;1.05;;;0.80;;
58354;SDS011;44160;49.080;19.302;2023-08-07T04:40:19;0.90;;;0.68;;
58354;SDS011;44160;49.080;19.302;2023-08-07T04:42:45;0.63;;;0.63;;
58354;SDS011;44160;49.080;19.302;2023-08-07T04:45:11;0.73;;;0.60;;
58354;SDS011;44160;49.080;19.302;2023-08-07T04:47:37;0.98;;;0.60;;
58354;SDS011;44160;49.080;19.302;2023-08-07T04:50:04;2.83;;;0.85;;
58354;SDS011;44160;49.080;19.302;2023-08-07T04:52:30;0.60;;;0.60;;
58354;SDS011;44160;49.080;19.302;2023-08-07T04:54:56;1.98;;;0.68;;
58354;SDS011;44160;49.080;19.302;2023-08-07T04:57:22;3.00;;;0.60;;
58354;SDS011;44160;49.080;19.302;2023-08-07T04:59:48;0.63;;;0.60;;
58354;SDS011;44160;49.080;19.302;2023-08-07T05:02:14;0.77;;;0.60;;
58354;SDS011;44160;49.080;19.302;2023-08-07T05:04:40;1.17;;;0.60;;
58354;SDS011;44160;49.080;19.302;2023-08-07T05:07:06;0.50;;;0.50;;
58354;SDS011;44160;49.080;19.302;2023-08-07T05:09:32;0.63;;;0.50;;
58354;SDS011;44160;49.080;19.302;2023-08-07T05:11:58;1.67;;;0.60;;
58354;SDS011;44160;49.080;19.302;2023-08-07T05:14:24;2.08;;;0.52;;
58354;SDS011;44160;49.080;19.302;2023-08-07T05:16:50;0.50;;;0.50;;
58354;SDS011;44160;49.080;19.302;2023-08-07T05:19:16;0.70;;;0.68;;
58354;SDS011;44160;49.080;19.302;2023-08-07T05:21:42;1.48;;;0.70;;
58354;SDS011;44160;49.080;19.302;2023-08-07T05:24:08;1.13;;;0.60;;
58354;SDS011;44160;49.080;19.302;2023-08-07T05:26:35;1.35;;;1.25;;
58354;SDS011;44160;49.080;19.302;2023-08-07T05:29:01;1.13;;;0.50;;
58354;SDS011;44160;49.080;19.302;2023-08-07T05:31:27;4.95;;;0.50;;
58354;SDS011;44160;49.080;19.302;2023-08-07T05:33:53;0.50;;;0.50;;
58354;SDS011;44160;49.080;19.302;2023-08-07T05:36:19;4.63;;;0.60;;
58354;SDS011;44160;49.080;19.302;2023-08-07T05:38:45;1.30;;;0.68;;
58354;SDS011;44160;49.080;19.302;2023-08-07T05:41:11;0.88;;;0.70;;
58354;SDS011;44160;49.080;19.302;2023-08-07T05:43:37;1.50;;;0.70;;
58354;SDS011;44160;49.080;19.302;2023-08-07T05:46:03;0.63;;;0.55;;
58354;SDS011;44160;49.080;19.302;2023-08-07T05:48:29;0.50;;;0.50;;
58354;SDS011;44160;49.080;19.302;2023-08-07T05:50:55;0.50;;;0.50;;
58354;SDS011;44160;49.080;19.302;2023-08-07T05:53:21;0.50;;;0.50;;
58354;SDS011;44160;49.080;19.302;2023-08-07T05:55:50;1.08;;;0.80;;
58354;SDS011;44160;49.080;19.302;2023-08-07T05:58:16;2.65;;;0.70;;
58354;SDS011;44160;49.080;19.302;2023-08-07T06:00:42;1.48;;;0.60;;
58354;SDS011;44160;49.080;19.302;2023-08-07T06:03:08;2.35;;;0.63;;
58354;SDS011;44160;49.080;19.302;2023-08-07T06:05:34;3.67;;;0.90;;
58354;SDS011;44160;49.080;19.302;2023-08-07T06:08:00;1.63;;;1.05;;
58354;SDS011;44160;49.080;19.302;2023-08-07T06:10:26;1.48;;;0.73;;
58354;SDS011;44160;49.080;19.302;2023-08-07T06:12:53;0.95;;;0.60;;
58354;SDS011;44160;49.080;19.302;2023-08-07T06:15:19;4.68;;;0.60;;
58354;SDS011;44160;49.080;19.302;2023-08-07T06:17:45;0.65;;;0.50;;
58354;SDS011;44160;49.080;19.302;2023-08-07T06:20:11;0.60;;;0.60;;
58354;SDS011;44160;49.080;19.302;2023-08-07T06:22:39;0.60;;;0.60;;
58354;SDS011;44160;49.080;19.302;2023-08-07T06:25:05;0.50;;;0.50;;
58354;SDS011;44160;49.080;19.302;2023-08-07T06:27:32;0.47;;;0.47;;
58354;SDS011;44160;49.080;19.302;2023-08-07T06:29:58;0.80;;;0.50;;
58354;SDS011;44160;49.080;19.302;2023-08-07T06:32:25;0.70;;;0.60;;
58354;SDS011;44160;49.080;19.302;2023-08-07T06:34:51;0.43;;;0.40;;
58354;SDS011;44160;49.080;19.302;2023-08-07T06:37:20;0.63;;;0.63;;
58354;SDS011;44160;49.080;19.302;2023-08-07T06:39:46;0.90;;;0.60;;
58354;SDS011;44160;49.080;19.302;2023-08-07T06:42:12;0.70;;;0.60;;
58354;SDS011;44160;49.080;19.302;2023-08-07T06:44:38;0.55;;;0.50;;
58354;SDS011;44160;49.080;19.302;2023-08-07T06:47:04;0.85;;;0.43;;
58354;SDS011;44160;49.080;19.302;2023-08-07T06:49:30;1.80;;;1.13;;
58354;SDS011;44160;49.080;19.302;2023-08-07T06:51:58;0.50;;;0.50;;
58354;SDS011;44160;49.080;19.302;2023-08-07T06:54:24;2.03;;;0.70;;
58354;SDS011;44160;49.080;19.302;2023-08-07T06:56:50;0.57;;;0.50;;
58354;SDS011;44160;49.080;19.302;2023-08-07T06:59:16;1.38;;;0.60;;
58354;SDS011;44160;49.080;19.302;2023-08-07T07:01:42;0.85;;;0.70;;
58354;SDS011;44160;49.080;19.302;2023-08-07T07:04:08;5.10;;;2.90;;
58354;SDS011;44160;49.080;19.302;2023-08-07T07:06:34;20.52;;;11.05;;
58354;SDS011;44160;49.080;19.302;2023-08-07T07:09:00;10.93;;;6.10;;
58354;SDS011;44160;49.080;19.302;2023-08-07T07:11:27;8.60;;;3.47;;
58354;SDS011;44160;49.080;19.302;2023-08-07T07:13:53;3.03;;;1.45;;
58354;SDS011;44160;49.080;19.302;2023-08-07T07:16:21;0.63;;;0.63;;
58354;SDS011;44160;49.080;19.302;2023-08-07T07:18:47;0.82;;;0.50;;
58354;SDS011;44160;49.080;19.302;2023-08-07T07:21:17;0.50;;;0.50;;
58354;SDS011;44160;49.080;19.302;2023-08-07T07:23:43;0.60;;;0.50;;
58354;SDS011;44160;49.080;19.302;2023-08-07T07:26:09;0.60;;;0.60;;
58354;SDS011;44160;49.080;19.302;2023-08-07T07:28:35;0.50;;;0.50;;
58354;SDS011;44160;49.080;19.302;2023-08-07T07:31:03;0.50;;;0.50;;
58354;SDS011;44160;49.080;19.302;2023-08-07T07:33:30;0.50;;;0.50;;
58354;SDS011;44160;49.080;19.302;2023-08-07T07:35:56;0.47;;;0.47;;
58354;SDS011;44160;49.080;19.302;2023-08-07T07:38:23;0.98;;;0.60;;
58354;SDS011;44160;49.080;19.302;2023-08-07T07:40:51;1.08;;;0.73;;
58354;SDS011;44160;49.080;19.302;2023-08-07T07:43:21;0.50;;;0.50;;
58354;SDS011;44160;49.080;19.302;2023-08-07T07:45:47;1.58;;;0.45;;
58354;SDS011;44160;49.080;19.302;2023-08-07T07:48:13;0.60;;;0.60;;
58354;SDS011;44160;49.080;19.302;2023-08-07T07:50:39;0.70;;;0.70;;
58354;SDS011;44160;49.080;19.302;2023-08-07T07:53:05;2.40;;;1.40;;
58354;SDS011;44160;49.080;19.302;2023-08-07T07:55:31;1.00;;;0.90;;
58354;SDS011;44160;49.080;19.302;2023-08-07T07:57:59;2.25;;;1.42;;
58354;SDS011;44160;49.080;19.302;2023-08-07T08:00:25;2.00;;;1.27;;
58354;SDS011;44160;49.080;19.302;2023-08-07T08:02:52;0.60;;;0.50;;
58354;SDS011;44160;49.080;19.302;2023-08-07T08:05:18;1.77;;;0.65;;
58354;SDS011;44160;49.080;19.302;2023-08-07T08:07:44;0.40;;;0.40;;
58354;SDS011;44160;49.080;19.302;2023-08-07T08:10:10;3.28;;;2.20;;
58354;SDS011;44160;49.080;19.302;2023-08-07T08:12:38;1.35;;;0.47;;
58354;SDS011;44160;49.080;19.302;2023-08-07T08:15:04;0.77;;;0.50;;
58354;SDS011;44160;49.080;19.302;2023-08-07T08:17:30;1.73;;;0.55;;
58354;SDS011;44160;49.080;19.302;2023-08-07T08:19:57;0.40;;;0.40;;
58354;SDS011;44160;49.080;19.302;2023-08-07T08:22:23;2.38;;;0.50;;
58354;SDS011;44160;49.080;19.302;2023-08-07T08:24:49;0.40;;;0.40;;
58354;SDS011;44160;49.080;19.302;2023-08-07T08:27:15;0.40;;;0.40;;
58354;SDS011;44160;49.080;19.302;2023-08-07T08:29:42;0.40;;;0.40;;
58354;SDS011;44160;49.080;19.302;2023-08-07T08:32:10;1.63;;;1.10;;
58354;SDS011;44160;49.080;19.302;2023-08-07T08:34:36;1.85;;;1.65;;
58354;SDS011;44160;49.080;19.302;2023-08-07T08:37:02;2.70;;;2.22;;
58354;SDS011;44160;49.080;19.302;2023-08-07T08:39:30;4.30;;;3.72;;
58354;SDS011;44160;49.080;19.302;2023-08-07T08:41:56;4.32;;;2.60;;
58354;SDS011;44160;49.080;19.302;2023-08-07T08:44:23;1.25;;;0.90;;
58354;SDS011;44160;49.080;19.302;2023-08-07T08:46:49;4.90;;;3.65;;
58354;SDS011;44160;49.080;19.302;2023-08-07T08:49:20;1.65;;;1.30;;
58354;SDS011;44160;49.080;19.302;2023-08-07T08:51:48;2.83;;;0.93;;
58354;SDS011;44160;49.080;19.302;2023-08-07T08:54:15;0.40;;;0.40;;
58354;SDS011;44160;49.080;19.302;2023-08-07T08:56:41;0.80;;;0.50;;
58354;SDS011;44160;49.080;19.302;2023-08-07T08:59:08;0.40;;;0.40;;
58354;SDS011;44160;49.080;19.302;2023-08-07T09:01:34;0.40;;;0.40;;
58354;SDS011;44160;49.080;19.302;2023-08-07T09:04:00;0.47;;;0.47;;
58354;SDS011;44160;49.080;19.302;2023-08-07T09:06:29;0.50;;;0.50;;
58354;SDS011;44160;49.080;19.302;2023-08-07T09:08:57;0.55;;;0.52;;
58354;SDS011;44160;49.080;19.302;2023-08-07T09:11:24;0.50;;;0.50;;
58354;SDS011;44160;49.080;19.302;2023-08-07T09:13:50;0.50;;;0.50;;
58354;SDS011;44160;49.080;19.302;2023-08-07T09:16:16;0.40;;;0.40;;
58354;SDS011;44160;49.080;19.302;2023-08-07T09:18:43;1.27;;;0.47;;
58354;SDS011;44160;49.080;19.302;2023-08-07T09:21:09;0.40;;;0.40;;
58354;SDS011;44160;49.080;19.302;2023-08-07T09:23:35;0.52;;;0.50;;
58354;SDS011;44160;49.080;19.302;2023-08-07T09:26:01;0.50;;;0.50;;
58354;SDS011;44160;49.080;19.302;2023-08-07T09:28:29;0.40;;;0.40;;
58354;SDS011;44160;49.080;19.302;2023-08-07T09:30:55;1.10;;;0.50;;
58354;SDS011;44160;49.080;19.302;2023-08-07T09:33:28;0.60;;;0.60;;
58354;SDS011;44160;49.080;19.302;2023-08-07T09:35:57;0.68;;;0.60;;
58354;SDS011;44160;49.080;19.302;2023-08-07T09:38:24;0.60;;;0.60;;
58354;SDS011;44160;49.080;19.302;2023-08-07T09:40:51;0.65;;;0.60;;
58354;SDS011;44160;49.080;19.302;2023-08-07T09:43:21;2.85;;;0.50;;
58354;SDS011;44160;49.080;19.302;2023-08-07T09:45:47;0.55;;;0.52;;
58354;SDS011;44160;49.080;19.302;2023-08-07T09:48:20;0.50;;;0.50;;
58354;SDS011;44160;49.080;19.302;2023-08-07T09:50:53;1.25;;;0.57;;
58354;SDS011;44160;49.080;19.302;2023-08-07T09:53:26;0.40;;;0.40;;
58354;SDS011;44160;49.080;19.302;2023-08-07T09:55:55;0.88;;;0.47;;
58354;SDS011;44160;49.080;19.302;2023-08-07T09:58:21;0.40;;;0.40;;
58354;SDS011;44160;49.080;19.302;2023-08-07T10:00:49;0.60;;;0.60;;
58354;SDS011;44160;49.080;19.302;2023-08-07T10:03:15;0.50;;;0.50;;
58354;SDS011;44160;49.080;19.302;2023-08-07T10:05:44;0.52;;;0.50;;
58354;SDS011;44160;49.080;19.302;2023-08-07T10:08:11;0.43;;;0.43;;
58354;SDS011;44160;49.080;19.302;2023-08-07T10:10:38;1.13;;;0.70;;
58354;SDS011;44160;49.080;19.302;2023-08-07T10:13:04;1.80;;;1.33;;
58354;SDS011;44160;49.080;19.302;2023-08-07T10:15:32;2.97;;;1.90;;
58354;SDS011;44160;49.080;19.302;2023-08-07T10:17:59;0.60;;;0.60;;
58354;SDS011;44160;49.080;19.302;2023-08-07T10:20:26;0.60;;;0.60;;
58354;SDS011;44160;49.080;19.302;2023-08-07T10:22:52;0.73;;;0.70;;
58354;SDS011;44160;49.080;19.302;2023-08-07T10:25:21;0.70;;;0.50;;
58354;SDS011;44160;49.080;19.302;2023-08-07T10:27:49;0.50;;;0.50;;
58354;SDS011;44160;49.080;19.302;2023-08-07T10:30:16;1.23;;;0.65;;
58354;SDS011;44160;49.080;19.302;2023-08-07T10:32:43;3.67;;;2.75;;
58354;SDS011;44160;49.080;19.302;2023-08-07T10:35:09;1.60;;;1.30;;
58354;SDS011;44160;49.080;19.302;2023-08-07T10:37:39;2.70;;;1.73;;
58354;SDS011;44160;49.080;19.302;2023-08-07T10:40:06;2.80;;;0.95;;
58354;SDS011;44160;49.080;19.302;2023-08-07T10:45:20;4.40;;;2.83;;
58354;SDS011;44160;49.080;19.302;2023-08-07T10:50:33;2.08;;;1.10;;
58354;SDS011;44160;49.080;19.302;2023-08-07T10:53:00;0.90;;;0.57;;
58354;SDS011;44160;49.080;19.302;2023-08-07T10:55:26;1.10;;;0.80;;
58354;SDS011;44160;49.080;19.302;2023-08-07T10:57:53;0.88;;;0.73;;
58354;SDS011;44160;49.080;19.302;2023-08-07T11:00:26;0.35;;;0.35;;
58354;SDS011;44160;49.080;19.302;2023-08-07T11:02:53;0.38;;;0.38;;
58354;SDS011;44160;49.080;19.302;2023-08-07T11:05:19;0.50;;;0.50;;
58354;SDS011;44160;49.080;19.302;2023-08-07T11:07:47;0.82;;;0.68;;
58354;SDS011;44160;49.080;19.302;2023-08-07T11:10:14;0.68;;;0.68;;
58354;SDS011;44160;49.080;19.302;2023-08-07T11:12:41;0.60;;;0.60;;
58354;SDS011;44160;49.080;19.302;2023-08-07T11:15:07;1.35;;;0.93;;
58354;SDS011;44160;49.080;19.302;2023-08-07T11:17:37;0.50;;;0.50;;
58354;SDS011;44160;49.080;19.302;2023-08-07T11:20:03;1.98;;;0.50;;
58354;SDS011;44160;49.080;19.302;2023-08-07T11:22:29;1.60;;;1.13;;
58354;SDS011;44160;49.080;19.302;2023-08-07T11:24:55;0.80;;;0.80;;
58354;SDS011;44160;49.080;19.302;2023-08-07T11:27:21;0.40;;;0.40;;
58354;SDS011;44160;49.080;19.302;2023-08-07T11:29:48;0.40;;;0.40;;
58354;SDS011;44160;49.080;19.302;2023-08-07T11:32:14;0.73;;;0.45;;
58354;SDS011;44160;49.080;19.302;2023-08-07T11:34:40;0.40;;;0.40;;
58354;SDS011;44160;49.080;19.302;2023-08-07T11:37:07;0.30;;;0.30;;
58354;SDS011;44160;49.080;19.302;2023-08-07T11:39:43;2.28;;;0.50;;
58354;SDS011;44160;49.080;19.302;2023-08-07T11:42:10;0.40;;;0.40;;
58354;SDS011;44160;49.080;19.302;2023-08-07T11:44:36;0.45;;;0.40;;
58354;SDS011;44160;49.080;19.302;2023-08-07T11:47:02;0.30;;;0.30;;
58354;SDS011;44160;49.080;19.302;2023-08-07T11:49:28;1.00;;;0.30;;
58354;SDS011;44160;49.080;19.302;2023-08-07T11:51:54;0.30;;;0.30;;
58354;SDS011;44160;49.080;19.302;2023-08-07T11:54:22;0.30;;;0.30;;
58354;SDS011;44160;49.080;19.302;2023-08-07T11:56:48;0.45;;;0.40;;
58354;SDS011;44160;49.080;19.302;2023-08-07T11:59:16;0.30;;;0.30;;
58354;SDS011;44160;49.080;19.302;2023-08-07T12:01:43;0.50;;;0.40;;
58354;SDS011;44160;49.080;19.302;2023-08-07T12:04:11;0.38;;;0.38;;
58354;SDS011;44160;49.080;19.302;2023-08-07T12:06:38;0.35;;;0.35;;
58354;SDS011;44160;49.080;19.302;2023-08-07T12:09:05;0.35;;;0.35;;
58354;SDS011;44160;49.080;19.302;2023-08-07T12:11:37;0.30;;;0.30;;
58354;SDS011;44160;49.080;19.302;2023-08-07T12:14:04;0.35;;;0.35;;
58354;SDS011;44160;49.080;19.302;2023-08-07T12:16:33;0.30;;;0.30;;
58354;SDS011;44160;49.080;19.302;2023-08-07T12:19:00;0.50;;;0.47;;
58354;SDS011;44160;49.080;19.302;2023-08-07T12:21:27;0.75;;;0.40;;
58354;SDS011;44160;49.080;19.302;2023-08-07T12:23:56;0.40;;;0.40;;
58354;SDS011;44160;49.080;19.302;2023-08-07T12:26:22;0.30;;;0.30;;
58354;SDS011;44160;49.080;19.302;2023-08-07T12:28:49;0.40;;;0.40;;
58354;SDS011;44160;49.080;19.302;2023-08-07T12:31:15;0.43;;;0.43;;
58354;SDS011;44160;49.080;19.302;2023-08-07T12:33:42;0.30;;;0.30;;
58354;SDS011;44160;49.080;19.302;2023-08-07T12:36:08;0.30;;;0.30;;
58354;SDS011;44160;49.080;19.302;2023-08-07T12:38:35;0.95;;;0.50;;
58354;SDS011;44160;49.080;19.302;2023-08-07T12:41:01;0.40;;;0.40;;
58354;SDS011;44160;49.080;19.302;2023-08-07T12:43:30;0.40;;;0.40;;
58354;SDS011;44160;49.080;19.302;2023-08-07T12:45:56;0.30;;;0.30;;
58354;SDS011;44160;49.080;19.302;2023-08-07T12:48:22;0.30;;;0.30;;
58354;SDS011;44160;49.080;19.302;2023-08-07T12:50:51;0.30;;;0.30;;
58354;SDS011;44160;49.080;19.302;2023-08-07T12:53:17;0.30;;;0.30;;
58354;SDS011;44160;49.080;19.302;2023-08-07T12:55:44;0.40;;;0.40;;
58354;SDS011;44160;49.080;19.302;2023-08-07T12:58:10;0.40;;;0.40;;
58354;SDS011;44160;49.080;19.302;2023-08-07T13:00:36;0.30;;;0.30;;
58354;SDS011;44160;49.080;19.302;2023-08-07T13:03:03;0.30;;;0.30;;
58354;SDS011;44160;49.080;19.302;2023-08-07T13:05:29;0.40;;;0.40;;
58354;SDS011;44160;49.080;19.302;2023-08-07T13:07:56;0.40;;;0.40;;
58354;SDS011;44160;49.080;19.302;2023-08-07T13:10:23;0.30;;;0.30;;
58354;SDS011;44160;49.080;19.302;2023-08-07T13:12:53;0.40;;;0.40;;
58354;SDS011;44160;49.080;19.302;2023-08-07T13:15:19;0.40;;;0.40;;
58354;SDS011;44160;49.080;19.302;2023-08-07T13:17:45;0.40;;;0.40;;
58354;SDS011;44160;49.080;19.302;2023-08-07T13:20:12;0.68;;;0.60;;
58354;SDS011;44160;49.080;19.302;2023-08-07T13:22:42;0.50;;;0.50;;
58354;SDS011;44160;49.080;19.302;2023-08-07T13:25:09;0.47;;;0.40;;
58354;SDS011;44160;49.080;19.302;2023-08-07T13:27:36;0.63;;;0.40;;
58354;SDS011;44160;49.080;19.302;2023-08-07T13:30:03;0.95;;;0.52;;
58354;SDS011;44160;49.080;19.302;2023-08-07T13:32:29;0.40;;;0.40;;
58354;SDS011;44160;49.080;19.302;2023-08-07T13:34:57;0.40;;;0.40;;
58354;SDS011;44160;49.080;19.302;2023-08-07T13:37:23;0.55;;;0.50;;
58354;SDS011;44160;49.080;19.302;2023-08-07T13:39:50;1.00;;;0.60;;
58354;SDS011;44160;49.080;19.302;2023-08-07T13:42:18;1.35;;;0.40;;
58354;SDS011;44160;49.080;19.302;2023-08-07T13:44:44;0.40;;;0.40;;
58354;SDS011;44160;49.080;19.302;2023-08-07T13:47:10;1.75;;;0.57;;
58354;SDS011;44160;49.080;19.302;2023-08-07T13:49:37;0.50;;;0.50;;
58354;SDS011;44160;49.080;19.302;2023-08-07T13:52:03;0.68;;;0.40;;
58354;SDS011;44160;49.080;19.302;2023-08-07T13:54:29;0.50;;;0.50;;
58354;SDS011;44160;49.080;19.302;2023-08-07T13:56:55;0.50;;;0.50;;
58354;SDS011;44160;49.080;19.302;2023-08-07T13:59:21;0.40;;;0.40;;
58354;SDS011;44160;49.080;19.302;2023-08-07T14:01:47;1.08;;;0.60;;
58354;SDS011;44160;49.080;19.302;2023-08-07T14:04:13;1.15;;;0.50;;
58354;SDS011;44160;49.080;19.302;2023-08-07T14:06:41;0.60;;;0.60;;
58354;SDS011;44160;49.080;19.302;2023-08-07T14:09:09;0.60;;;0.60;;
58354;SDS011;44160;49.080;19.302;2023-08-07T14:11:36;0.85;;;0.50;;
58354;SDS011;44160;49.080;19.302;2023-08-07T14:14:02;1.05;;;0.82;;
58354;SDS011;44160;49.080;19.302;2023-08-07T14:16:28;0.63;;;0.60;;
58354;SDS011;44160;49.080;19.302;2023-08-07T14:18:54;0.50;;;0.50;;
58354;SDS011;44160;49.080;19.302;2023-08-07T14:21:20;0.50;;;0.50;;
58354;SDS011;44160;49.080;19.302;2023-08-07T14:23:46;0.47;;;0.47;;
58354;SDS011;44160;49.080;19.302;2023-08-07T14:26:14;0.45;;;0.45;;
58354;SDS011;44160;49.080;19.302;2023-08-07T14:28:40;1.20;;;0.43;;
58354;SDS011;44160;49.080;19.302;2023-08-07T14:31:07;0.50;;;0.50;;
58354;SDS011;44160;49.080;19.302;2023-08-07T14:33:33;0.40;;;0.40;;
58354;SDS011;44160;49.080;19.302;2023-08-07T14:35:59;0.40;;;0.40;;
58354;SDS011;44160;49.080;19.302;2023-08-07T14:38:26;0.40;;;0.40;;